Aérodrome :
LOGIN :

S'inscrire | Disclaimer

   EN    FR    IT 

 










Légende :    VFR   VFR Marginal   IFR   IFR Intensif   IFR Très Intensif
Visi : 
Plafond : 
>= 8 km
>= 3000ft
5 à 8 km
1000 à 3000 ft
1500m à 5 km
500 à 1000 ft
800 à 1500m
200 à 500 ft
< 800m
< 200 ft
Symboles :   Orages  Brouillard  Fortes neiges  Fortes précipitations  Vent > 20 kt
SIGMETs :   Divers  Orages  Givrage  Turbulence  Onde Orograph.  Cendres Volcan.






- Altitude de l'aérodrome : 607 ft
- Code IATA : BCM


LRBC - Bacău

DERNIER METAR :
  • 160900Z 15011KT 9999 SCT006 BKN009 13/13 Q1019

METARs EXPIRÉS :
  • 160830Z 15010KT 6000 SCT003 BKN005 12/12 Q1019
  • 160800Z 16011KT 4500 BR SCT002 BKN004 12/12 Q1019
  • 160730Z 15009KT 5000 BR SCT002 BKN006 12/12 Q1019
  • 160700Z 15010KT 2800 BR BKN001 BKN006 12/12 Q1019
  • 160630Z 16009KT 2300 -DZ BR BKN001 BKN007 12/12 Q1019

TAF TAF LRBC
Valide du 16 à 09h jusqu'au 16 à 18h UTC


160800Z 1609/1618 16010KT 5000 BR BKN005
BECMG 1609/1611 9999 NSW SCT010



MET'MAP, la Météo Aéronautique d'un coup d'oeil ! - Copyright ORBIFLY Décembre 2007 - Disclaimer

ORBIFLY MET'MAP TEAM :

Programmation & Développement : Alexandra Zaïnal
Conception & Développement : Baudouin d'Aumeries
Co-Programmation & Développement : Marc-Olivier Méhu
Soutien technique & logistique : Manuel Goepfert

Contact : metmap@orbifly.com




SOURCES & CREDITS :

   NOAA